Time;durP1;ratioP1;P1;durP2;ratioP2;P2;SDS_P1;SDS_P2;PMS_P1;PMS_P2;Temp;Humidity;BMP_temperature;BMP_pressure;BME280_temperature;BME280_humidity;BME280_pressure;Samples;Min_cycle;Max_cycle;Signal;HPM_P1;HPM_P2
2023/03/04 00:01:49;;;;;;;31.58;14.93;;;;;;;;;;5013954;28;20523;-85
2023/03/04 00:04:15;;;;;;;33.90;14.30;;;;;;;;;;5009844;28;20108;-84
2023/03/04 00:06:41;;;;;;;38.13;16.92;;;;;;;;;;5005011;28;20038;-84
2023/03/04 00:09:07;;;;;;;36.35;16.52;;;;;;;;;;5010530;28;20044;-84
2023/03/04 00:11:33;;;;;;;31.75;15.45;;;;;;;;;;5011132;28;20040;-84
2023/03/04 00:13:59;;;;;;;28.25;13.98;;;;;;;;;;5015199;28;20026;-84
2023/03/04 00:16:26;;;;;;;25.58;14.82;;;;;;;;;;5017150;28;20030;-84
2023/03/04 00:18:52;;;;;;;33.47;15.55;;;;;;;;;;5014798;28;20069;-84
2023/03/04 00:21:18;;;;;;;32.67;15.20;;;;;;;;;;5012895;28;20036;-84
2023/03/04 00:23:44;;;;;;;29.35;14.82;;;;;;;;;;5011709;28;20062;-84
2023/03/04 00:26:12;;;;;;;38.00;15.80;;;;;;;;;;5015429;28;20093;-84
2023/03/04 00:28:38;;;;;;;32.70;13.43;;;;;;;;;;5013986;28;20407;-84
2023/03/04 00:31:05;;;;;;;27.92;14.65;;;;;;;;;;5012546;28;20042;-84
2023/03/04 00:33:30;;;;;;;16.05;11.35;;;;;;;;;;5013756;28;20096;-84
2023/03/04 00:35:56;;;;;;;23.73;14.32;;;;;;;;;;5008846;28;20478;-83
2023/03/04 00:38:22;;;;;;;34.97;16.02;;;;;;;;;;5015566;28;20026;-83
2023/03/04 00:40:48;;;;;;;32.88;16.08;;;;;;;;;;5008778;28;20054;-84
2023/03/04 00:43:14;;;;;;;22.77;10.02;;;;;;;;;;5013369;28;20041;-84
2023/03/04 00:45:40;;;;;;;13.57;9.88;;;;;;;;;;5017976;28;20106;-84
2023/03/04 00:48:06;;;;;;;36.33;15.57;;;;;;;;;;5013172;28;20058;-83
2023/03/04 00:50:32;;;;;;;31.98;16.63;;;;;;;;;;5011660;28;20033;-83
2023/03/04 00:52:58;;;;;;;23.25;13.00;;;;;;;;;;5012542;28;20696;-84
2023/03/04 00:55:24;;;;;;;34.95;11.70;;;;;;;;;;5012978;28;20634;-84
2023/03/04 00:57:50;;;;;;;35.85;16.90;;;;;;;;;;5016284;28;20053;-84
2023/03/04 01:00:16;;;;;;;29.75;13.95;;;;;;;;;;5015526;28;20521;-84
2023/03/04 01:02:42;;;;;;;26.40;11.75;;;;;;;;;;5010064;28;20023;-84
2023/03/04 01:05:09;;;;;;;30.27;13.40;;;;;;;;;;5007871;28;20038;-83
2023/03/04 01:07:35;;;;;;;31.90;12.65;;;;;;;;;;5012602;28;20041;-83
2023/03/04 01:10:00;;;;;;;30.90;15.52;;;;;;;;;;5010065;28;20057;-84
2023/03/04 01:12:27;;;;;;;39.88;16.75;;;;;;;;;;5010075;28;20018;-84
2023/03/04 01:14:53;;;;;;;24.73;11.10;;;;;;;;;;5012742;28;20141;-83
2023/03/04 01:17:19;;;;;;;29.95;15.80;;;;;;;;;;5009504;28;20817;-84
2023/03/04 01:19:45;;;;;;;21.55;11.07;;;;;;;;;;5013349;28;20034;-84
2023/03/04 01:22:12;;;;;;;27.20;15.43;;;;;;;;;;5013353;28;20030;-84
2023/03/04 01:24:38;;;;;;;28.02;13.90;;;;;;;;;;5015055;28;20034;-84
2023/03/04 01:27:04;;;;;;;31.90;15.32;;;;;;;;;;5004453;28;20042;-84
2023/03/04 01:29:30;;;;;;;26.48;15.20;;;;;;;;;;5012819;28;20032;-83
2023/03/04 01:31:56;;;;;;;49.13;16.40;;;;;;;;;;5011267;28;20038;-84
2023/03/04 01:34:22;;;;;;;28.67;14.45;;;;;;;;;;5016063;28;20033;-84
2023/03/04 01:36:48;;;;;;;33.28;16.75;;;;;;;;;;5014278;28;20045;-84
2023/03/04 01:39:14;;;;;;;31.33;15.35;;;;;;;;;;5015241;28;20038;-83
2023/03/04 01:41:40;;;;;;;27.10;12.93;;;;;;;;;;5016030;28;20546;-84
2023/03/04 01:44:08;;;;;;;21.23;13.68;;;;;;;;;;5014108;28;20494;-84
2023/03/04 01:46:34;;;;;;;34.20;15.68;;;;;;;;;;5010749;28;20029;-83
2023/03/04 01:49:00;;;;;;;34.58;15.85;;;;;;;;;;5012561;28;20046;-83
2023/03/04 01:51:26;;;;;;;25.98;13.38;;;;;;;;;;5012235;28;20028;-83
2023/03/04 01:53:53;;;;;;;36.05;13.40;;;;;;;;;;5012194;28;20021;-83
2023/03/04 01:56:23;;;;;;;15.02;10.27;;;;;;;;;;5009074;28;20092;-84
2023/03/04 01:59:08;;;;;;;14.30;10.15;;;;;;;;;;5010683;28;20099;-84
2023/03/04 02:01:34;;;;;;;19.77;11.27;;;;;;;;;;5011390;28;20133;-83
2023/03/04 02:04:00;;;;;;;31.80;13.20;;;;;;;;;;5013015;28;20038;-84
2023/03/04 02:06:26;;;;;;;25.45;13.38;;;;;;;;;;5017279;28;20032;-83
2023/03/04 02:08:52;;;;;;;19.42;10.65;;;;;;;;;;5012897;28;20033;-83
2023/03/04 02:11:18;;;;;;;22.48;11.10;;;;;;;;;;5013908;28;20036;-83
2023/03/04 02:13:44;;;;;;;29.63;13.30;;;;;;;;;;5006872;28;20038;-82
2023/03/04 02:16:10;;;;;;;10.43;8.02;;;;;;;;;;5011470;28;20049;-83
2023/03/04 02:18:36;;;;;;;22.98;14.85;;;;;;;;;;5010830;28;20030;-83
2023/03/04 02:21:08;;;;;;;21.27;13.35;;;;;;;;;;5012961;28;20030;-83
2023/03/04 02:23:41;;;;;;;30.10;14.88;;;;;;;;;;5015213;28;20044;-83
2023/03/04 02:26:07;;;;;;;30.88;14.63;;;;;;;;;;5010923;28;20034;-83
2023/03/04 02:28:33;;;;;;;24.42;12.60;;;;;;;;;;5010990;28;20045;-82
2023/03/04 02:30:59;;;;;;;36.65;14.10;;;;;;;;;;5011204;28;20540;-83
2023/03/04 02:33:25;;;;;;;21.80;13.00;;;;;;;;;;5009340;28;20030;-83
2023/03/04 02:35:51;;;;;;;30.80;16.20;;;;;;;;;;5012239;28;20053;-83
2023/03/04 02:38:17;;;;;;;30.88;15.38;;;;;;;;;;5009959;28;20034;-83
2023/03/04 02:40:46;;;;;;;39.20;16.85;;;;;;;;;;5008563;28;20486;-83
2023/03/04 02:43:12;;;;;;;34.58;14.55;;;;;;;;;;5008881;28;20026;-83
2023/03/04 02:45:45;;;;;;;34.95;16.00;;;;;;;;;;5009942;28;20085;-82
2023/03/04 02:48:12;;;;;;;21.27;12.77;;;;;;;;;;5008476;28;20153;-82
2023/03/04 02:50:43;;;;;;;30.30;15.40;;;;;;;;;;5016242;28;20037;-83
2023/03/04 02:53:10;;;;;;;36.80;15.68;;;;;;;;;;5015380;28;20048;-82
2023/03/04 02:55:36;;;;;;;35.13;17.08;;;;;;;;;;5014033;28;20037;-83
2023/03/04 02:58:02;;;;;;;17.20;9.98;;;;;;;;;;5017703;28;20038;-82
2023/03/04 03:00:28;;;;;;;28.10;13.32;;;;;;;;;;5016135;28;21238;-83
2023/03/04 03:02:55;;;;;;;24.02;12.00;;;;;;;;;;5014826;28;20025;-83
2023/03/04 03:05:22;;;;;;;33.42;16.42;;;;;;;;;;5009424;28;20090;-83
2023/03/04 03:07:48;;;;;;;28.65;13.70;;;;;;;;;;5018761;28;20032;-83
2023/03/04 03:10:14;;;;;;;25.48;14.32;;;;;;;;;;5010733;28;20026;-83
2023/03/04 03:12:40;;;;;;;29.42;15.73;;;;;;;;;;5004786;28;20033;-83
2023/03/04 03:15:06;;;;;;;30.88;14.02;;;;;;;;;;5012592;28;20030;-83
2023/03/04 03:17:32;;;;;;;25.85;13.23;;;;;;;;;;5015775;28;20065;-82
2023/03/04 03:19:58;;;;;;;18.95;10.80;;;;;;;;;;5007728;28;20034;-83
2023/03/04 03:22:24;;;;;;;35.83;12.63;;;;;;;;;;5005345;28;20030;-83
2023/03/04 03:24:50;;;;;;;33.63;13.90;;;;;;;;;;5015023;28;20025;-83
2023/03/04 03:27:16;;;;;;;25.20;15.07;;;;;;;;;;5015269;28;20637;-83
2023/03/04 03:29:42;;;;;;;33.85;14.80;;;;;;;;;;5017658;28;20054;-82
2023/03/04 03:32:08;;;;;;;18.52;10.20;;;;;;;;;;5016389;28;20050;-83
2023/03/04 03:34:34;;;;;;;31.98;15.10;;;;;;;;;;5011073;28;20082;-82
2023/03/04 03:37:00;;;;;;;26.95;11.25;;;;;;;;;;5009764;28;20053;-82
2023/03/04 03:39:26;;;;;;;35.67;16.13;;;;;;;;;;5015397;28;20037;-82
2023/03/04 03:41:52;;;;;;;26.17;13.63;;;;;;;;;;5010992;28;20121;-82
2023/03/04 03:44:18;;;;;;;22.15;11.75;;;;;;;;;;5013272;28;20516;-82
2023/03/04 03:46:45;;;;;;;20.38;11.52;;;;;;;;;;5012195;28;20034;-82
2023/03/04 03:49:11;;;;;;;15.80;9.68;;;;;;;;;;5013565;28;20454;-82
2023/03/04 03:51:38;;;;;;;29.23;14.07;;;;;;;;;;5017464;28;20022;-82
2023/03/04 03:54:04;;;;;;;28.27;14.73;;;;;;;;;;5012589;28;20026;-82
2023/03/04 03:56:30;;;;;;;27.90;15.43;;;;;;;;;;5010227;28;20054;-81
2023/03/04 03:58:56;;;;;;;43.70;17.67;;;;;;;;;;5014543;28;20045;-82
2023/03/04 04:01:22;;;;;;;26.85;12.63;;;;;;;;;;5014913;28;20026;-81
2023/03/04 04:03:48;;;;;;;17.73;11.50;;;;;;;;;;5014942;28;20100;-82
2023/03/04 04:06:14;;;;;;;23.05;14.32;;;;;;;;;;5018282;28;20020;-81
2023/03/04 04:08:40;;;;;;;25.48;12.38;;;;;;;;;;5013344;28;20090;-81
2023/03/04 04:11:06;;;;;;;17.55;11.15;;;;;;;;;;5013246;28;20029;-81
2023/03/04 04:13:32;;;;;;;15.77;10.70;;;;;;;;;;5012101;28;20022;-81
2023/03/04 04:15:58;;;;;;;39.67;14.18;;;;;;;;;;5013355;28;20129;-81
2023/03/04 04:18:24;;;;;;;20.65;12.68;;;;;;;;;;5009418;28;20034;-81
2023/03/04 04:20:51;;;;;;;24.20;7.60;;;;;;;;;;5011611;28;20051;-81
2023/03/04 04:23:17;;;;;;;16.27;8.88;;;;;;;;;;5015247;28;20026;-80
2023/03/04 04:25:43;;;;;;;12.95;9.57;;;;;;;;;;5012574;28;20093;-81
2023/03/04 04:28:09;;;;;;;36.72;16.98;;;;;;;;;;5014143;28;20022;-81
2023/03/04 04:30:35;;;;;;;41.05;15.15;;;;;;;;;;5022686;28;20037;-81
2023/03/04 04:33:03;;;;;;;21.25;13.73;;;;;;;;;;5022823;28;20026;-81
2023/03/04 04:35:29;;;;;;;27.73;15.02;;;;;;;;;;5016815;28;20033;-81
2023/03/04 04:37:55;;;;;;;16.98;10.50;;;;;;;;;;5014979;28;20022;-82
2023/03/04 04:40:21;;;;;;;14.60;9.55;;;;;;;;;;5014853;28;20048;-81
2023/03/04 04:42:47;;;;;;;23.05;10.77;;;;;;;;;;5010267;28;20041;-81
2023/03/04 04:45:13;;;;;;;14.90;8.15;;;;;;;;;;5014542;28;20116;-81
2023/03/04 04:47:39;;;;;;;22.85;11.95;;;;;;;;;;5018185;28;20034;-82
2023/03/04 04:50:06;;;;;;;12.50;9.10;;;;;;;;;;5015752;28;20446;-81
2023/03/04 04:52:32;;;;;;;12.57;8.73;;;;;;;;;;5008922;28;20030;-81
2023/03/04 04:54:58;;;;;;;16.17;10.43;;;;;;;;;;5009762;28;20057;-81
2023/03/04 04:57:24;;;;;;;20.98;12.40;;;;;;;;;;5007521;28;20109;-81
2023/03/04 04:59:50;;;;;;;16.88;10.55;;;;;;;;;;5012945;28;20038;-81
2023/03/04 05:02:16;;;;;;;23.42;10.70;;;;;;;;;;5009785;28;20057;-81
2023/03/04 05:04:42;;;;;;;21.45;10.90;;;;;;;;;;5009192;28;20093;-81
2023/03/04 05:07:08;;;;;;;20.98;11.63;;;;;;;;;;5009354;28;20061;-81
2023/03/04 05:09:34;;;;;;;35.90;13.00;;;;;;;;;;5012012;28;20037;-81
2023/03/04 05:12:00;;;;;;;13.82;9.02;;;;;;;;;;5005058;28;20037;-81
2023/03/04 05:14:26;;;;;;;17.40;10.88;;;;;;;;;;5014384;28;20085;-81
2023/03/04 05:16:52;;;;;;;25.48;13.73;;;;;;;;;;5005440;28;21239;-81
2023/03/04 05:19:18;;;;;;;34.88;15.98;;;;;;;;;;5013366;28;20041;-81
2023/03/04 05:21:44;;;;;;;31.50;15.65;;;;;;;;;;5011000;28;20497;-82
2023/03/04 05:24:10;;;;;;;20.70;13.50;;;;;;;;;;5013616;28;20032;-81
2023/03/04 05:26:36;;;;;;;21.48;11.20;;;;;;;;;;5012366;28;20049;-81
2023/03/04 05:29:03;;;;;;;26.95;14.07;;;;;;;;;;5010618;28;20034;-83
2023/03/04 05:31:29;;;;;;;17.55;10.43;;;;;;;;;;5013890;28;20052;-81
2023/03/04 05:33:55;;;;;;;26.15;14.68;;;;;;;;;;5014841;28;20487;-81
2023/03/04 05:36:21;;;;;;;29.02;14.82;;;;;;;;;;5009781;28;20034;-81
2023/03/04 05:38:47;;;;;;;35.25;17.52;;;;;;;;;;5011925;28;20037;-81
2023/03/04 05:41:13;;;;;;;28.95;14.23;;;;;;;;;;5015346;28;20168;-82
2023/03/04 05:43:41;;;;;;;26.65;14.10;;;;;;;;;;5011921;28;20494;-82
2023/03/04 05:46:08;;;;;;;24.57;12.07;;;;;;;;;;5008797;28;20105;-82
2023/03/04 05:48:34;;;;;;;26.58;13.05;;;;;;;;;;5008978;28;20415;-82
2023/03/04 05:51:01;;;;;;;23.30;14.18;;;;;;;;;;5008995;28;20069;-82
2023/03/04 05:53:27;;;;;;;20.35;10.45;;;;;;;;;;5012890;28;20133;-81
2023/03/04 05:55:53;;;;;;;25.70;13.13;;;;;;;;;;5009748;28;20034;-82
2023/03/04 05:58:19;;;;;;;20.55;11.70;;;;;;;;;;5012822;28;20084;-82
2023/03/04 06:00:45;;;;;;;11.13;7.97;;;;;;;;;;5014699;28;20049;-82
2023/03/04 06:03:19;;;;;;;24.65;13.43;;;;;;;;;;5015550;28;20026;-82
2023/03/04 06:05:45;;;;;;;17.45;10.95;;;;;;;;;;5010095;28;20014;-82
2023/03/04 06:08:11;;;;;;;13.55;10.13;;;;;;;;;;5013139;28;21979;-82
2023/03/04 06:10:38;;;;;;;29.45;12.18;;;;;;;;;;5008690;28;20401;-82
2023/03/04 06:13:05;;;;;;;24.25;12.20;;;;;;;;;;5009805;28;20006;-82
2023/03/04 06:15:31;;;;;;;25.80;14.23;;;;;;;;;;5012349;28;20030;-82
2023/03/04 06:17:57;;;;;;;18.58;11.48;;;;;;;;;;5009655;28;20045;-82
2023/03/04 06:20:23;;;;;;;10.25;7.55;;;;;;;;;;5005893;28;20030;-82
2023/03/04 06:22:49;;;;;;;26.48;13.07;;;;;;;;;;5009672;28;20049;-81
2023/03/04 06:25:15;;;;;;;18.05;8.88;;;;;;;;;;5011334;28;20034;-83
2023/03/04 06:27:41;;;;;;;20.10;9.85;;;;;;;;;;5011484;28;20537;-82
2023/03/04 06:30:07;;;;;;;31.30;13.25;;;;;;;;;;5013456;28;20619;-82
2023/03/04 06:32:33;;;;;;;21.63;12.52;;;;;;;;;;5009162;28;20037;-83
2023/03/04 06:34:59;;;;;;;34.83;16.95;;;;;;;;;;5009186;28;20467;-84
2023/03/04 06:37:25;;;;;;;3.65;3.28;;;;;;;;;;5004453;28;20036;-84
2023/03/04 06:39:51;;;;;;;14.80;9.98;;;;;;;;;;5010170;28;20042;-83
2023/03/04 06:42:18;;;;;;;5.88;4.15;;;;;;;;;;5014810;28;20271;-84
2023/03/04 06:44:44;;;;;;;5.40;4.97;;;;;;;;;;5008012;28;20124;-83
2023/03/04 06:47:10;;;;;;;39.30;17.02;;;;;;;;;;5008602;28;20057;-84
2023/03/04 06:49:36;;;;;;;18.95;9.98;;;;;;;;;;5008199;28;20049;-83
2023/03/04 06:52:02;;;;;;;5.22;2.85;;;;;;;;;;5007330;28;20394;-83
2023/03/04 06:54:29;;;;;;;8.77;7.10;;;;;;;;;;5009740;28;20038;-84
2023/03/04 06:56:55;;;;;;;13.07;7.50;;;;;;;;;;5005429;28;20094;-83
2023/03/04 06:59:21;;;;;;;5.28;4.88;;;;;;;;;;5008447;28;20053;-82
2023/03/04 07:01:47;;;;;;;27.48;16.15;;;;;;;;;;5005793;28;20031;-83
2023/03/04 07:04:13;;;;;;;11.63;5.97;;;;;;;;;;5011411;28;20030;-83
2023/03/04 07:06:39;;;;;;;30.45;15.93;;;;;;;;;;5010601;28;20029;-83
2023/03/04 07:09:05;;;;;;;11.70;7.93;;;;;;;;;;5009762;28;20037;-83
2023/03/04 07:11:32;;;;;;;30.58;14.82;;;;;;;;;;5011557;28;20034;-83
2023/03/04 07:13:58;;;;;;;13.98;9.25;;;;;;;;;;5008186;28;20018;-83
2023/03/04 07:16:24;;;;;;;21.48;11.80;;;;;;;;;;5015407;28;20522;-83
2023/03/04 07:18:50;;;;;;;34.90;18.60;;;;;;;;;;5004671;28;20030;-84
2023/03/04 07:21:17;;;;;;;16.00;9.80;;;;;;;;;;5008511;28;20029;-82
2023/03/04 07:23:43;;;;;;;22.92;12.13;;;;;;;;;;5011379;28;20112;-83
2023/03/04 07:26:09;;;;;;;15.18;8.07;;;;;;;;;;5011274;28;20101;-83
2023/03/04 07:28:35;;;;;;;37.05;16.83;;;;;;;;;;5009072;28;20422;-83
2023/03/04 07:31:08;;;;;;;12.68;9.52;;;;;;;;;;5013131;28;20030;-83
2023/03/04 07:33:34;;;;;;;25.42;14.07;;;;;;;;;;5012257;28;20026;-83
2023/03/04 07:36:00;;;;;;;26.45;12.80;;;;;;;;;;5013917;28;20057;-83
2023/03/04 07:38:26;;;;;;;30.70;14.52;;;;;;;;;;5006990;28;20034;-83
2023/03/04 07:40:56;;;;;;;21.10;11.90;;;;;;;;;;5015791;28;20034;-83
2023/03/04 07:43:22;;;;;;;27.63;15.50;;;;;;;;;;5012563;28;20041;-84
2023/03/04 07:45:48;;;;;;;31.05;15.63;;;;;;;;;;5005866;28;20565;-85
2023/03/04 07:48:14;;;;;;;8.35;5.82;;;;;;;;;;5016599;28;20052;-84
2023/03/04 07:50:40;;;;;;;18.15;13.75;;;;;;;;;;5013978;28;20030;-86
2023/03/04 07:53:06;;;;;;;34.58;18.77;;;;;;;;;;5014596;28;20048;-85
2023/03/04 07:55:32;;;;;;;29.27;16.15;;;;;;;;;;5010490;28;20034;-85
2023/03/04 07:57:58;;;;;;;39.17;17.05;;;;;;;;;;5015013;28;20041;-86
2023/03/04 08:00:24;;;;;;;27.40;14.10;;;;;;;;;;5013670;28;20041;-86
2023/03/04 08:02:50;;;;;;;9.82;7.80;;;;;;;;;;5007956;28;20038;-84
2023/03/04 08:05:16;;;;;;;19.92;9.18;;;;;;;;;;5009019;28;20045;-84
2023/03/04 08:07:42;;;;;;;13.68;11.65;;;;;;;;;;5016112;28;20037;-83
2023/03/04 08:10:08;;;;;;;24.38;12.05;;;;;;;;;;5018334;28;20040;-83
2023/03/04 08:12:34;;;;;;;18.50;10.27;;;;;;;;;;5010951;28;20030;-83
2023/03/04 08:15:00;;;;;;;30.65;16.80;;;;;;;;;;5010556;28;20082;-83
2023/03/04 08:17:28;;;;;;;30.90;17.15;;;;;;;;;;5012315;28;20041;-84
2023/03/04 08:19:54;;;;;;;28.23;12.00;;;;;;;;;;5015403;28;20022;-83
2023/03/04 08:22:20;;;;;;;51.33;21.48;;;;;;;;;;5009082;28;20053;-86
2023/03/04 08:24:46;;;;;;;43.78;19.77;;;;;;;;;;5007894;28;20029;-86
2023/03/04 08:27:12;;;;;;;10.40;9.18;;;;;;;;;;5013941;28;20542;-84
2023/03/04 08:29:38;;;;;;;19.65;12.32;;;;;;;;;;5013264;28;20041;-84
2023/03/04 08:32:04;;;;;;;25.88;13.85;;;;;;;;;;5013322;28;20521;-84
2023/03/04 08:34:30;;;;;;;29.13;15.10;;;;;;;;;;5014259;28;20122;-85
2023/03/04 08:36:56;;;;;;;18.25;9.93;;;;;;;;;;5017189;28;20068;-86
2023/03/04 08:39:22;;;;;;;20.20;13.93;;;;;;;;;;5015326;28;20083;-84
2023/03/04 08:41:48;;;;;;;12.73;7.75;;;;;;;;;;5011511;28;20112;-84
2023/03/04 08:44:15;;;;;;;25.92;15.45;;;;;;;;;;5009049;28;20034;-85
2023/03/04 08:46:42;;;;;;;20.60;11.73;;;;;;;;;;5015124;28;20041;-84
2023/03/04 08:49:08;;;;;;;57.85;28.13;;;;;;;;;;5013960;28;20053;-86
2023/03/04 08:51:34;;;;;;;25.88;13.07;;;;;;;;;;5013100;28;20069;-85
2023/03/04 08:54:01;;;;;;;25.98;14.52;;;;;;;;;;5019778;28;20025;-87
2023/03/04 08:56:27;;;;;;;39.65;17.63;;;;;;;;;;5020859;28;20056;-86
2023/03/04 08:58:53;;;;;;;35.45;18.63;;;;;;;;;;5011572;28;20061;-87
2023/03/04 09:01:19;;;;;;;46.40;19.67;;;;;;;;;;5012434;28;20113;-86
2023/03/04 09:03:45;;;;;;;19.30;11.13;;;;;;;;;;5018388;28;20030;-85
2023/03/04 09:06:13;;;;;;;28.83;16.02;;;;;;;;;;5010713;28;20076;-88
2023/03/04 09:08:39;;;;;;;30.40;16.73;;;;;;;;;;5015163;28;20026;-86
2023/03/04 09:11:05;;;;;;;28.98;14.70;;;;;;;;;;5011561;28;20061;-85
2023/03/04 09:13:31;;;;;;;32.13;16.27;;;;;;;;;;5009888;28;20033;-84
2023/03/04 09:15:58;;;;;;;27.85;15.52;;;;;;;;;;5015528;28;20036;-84
2023/03/04 09:18:24;;;;;;;29.08;15.27;;;;;;;;;;5012727;28;20025;-83
2023/03/04 09:20:51;;;;;;;28.27;14.07;;;;;;;;;;5009063;28;20044;-84
2023/03/04 09:23:17;;;;;;;37.28;17.02;;;;;;;;;;5012257;28;20030;-82
2023/03/04 09:25:45;;;;;;;24.27;13.77;;;;;;;;;;5004700;28;20030;-82
2023/03/04 09:28:12;;;;;;;27.55;13.10;;;;;;;;;;5010797;28;20108;-81
2023/03/04 09:30:38;;;;;;;27.83;14.38;;;;;;;;;;5012013;28;20037;-94
2023/03/04 09:33:04;;;;;;;25.55;13.45;;;;;;;;;;5012862;28;20090;-90
2023/03/04 09:35:30;;;;;;;17.88;11.15;;;;;;;;;;5013806;28;20054;-90
2023/03/04 09:37:57;;;;;;;38.00;17.52;;;;;;;;;;5017346;28;20160;-88
2023/03/04 09:40:25;;;;;;;31.75;16.88;;;;;;;;;;5010650;28;20026;-84
2023/03/04 09:42:56;;;;;;;34.40;14.73;;;;;;;;;;5010128;28;20042;-86
2023/03/04 09:45:24;;;;;;;18.50;10.25;;;;;;;;;;5007504;28;20362;-85
2023/03/04 09:47:52;;;;;;;29.63;10.23;;;;;;;;;;5014610;28;20104;-87
2023/03/04 09:50:19;;;;;;;30.63;13.73;;;;;;;;;;5011128;28;20474;-86
2023/03/04 09:52:50;;;;;;;33.33;16.48;;;;;;;;;;5008668;28;20308;-88
2023/03/04 09:55:38;;;;;;;20.52;8.07;;;;;;;;;;5015955;28;20909;-88
2023/03/04 09:58:22;;;;;;;30.73;14.13;;;;;;;;;;5009027;28;20061;-89
2023/03/04 10:00:55;;;;;;;33.88;15.55;;;;;;;;;;5012892;28;20117;-88
2023/03/04 10:03:25;;;;;;;31.58;15.95;;;;;;;;;;5013582;28;20029;-88
2023/03/04 10:05:54;;;;;;;36.88;16.30;;;;;;;;;;5007244;28;20022;-86
2023/03/04 10:08:20;;;;;;;28.33;14.48;;;;;;;;;;5018850;28;20030;-88
2023/03/04 10:10:47;;;;;;;29.60;16.13;;;;;;;;;;5011574;28;20034;-87
2023/03/04 10:13:18;;;;;;;31.45;15.68;;;;;;;;;;5006334;28;20022;-87
2023/03/04 10:15:46;;;;;;;31.63;13.68;;;;;;;;;;5010560;28;20045;-89
2023/03/04 10:18:16;;;;;;;28.17;14.73;;;;;;;;;;5008815;28;20069;-86
2023/03/04 10:20:52;;;;;;;29.75;13.70;;;;;;;;;;5014873;28;20112;-87
2023/03/04 10:23:21;;;;;;;34.15;15.40;;;;;;;;;;5012255;28;20050;-88
2023/03/04 10:25:52;;;;;;;;;;;;;;;;;;5002120;28;20038;-89
2023/03/04 10:28:20;;;;;;;32.58;14.98;;;;;;;;;;5014728;28;19937;-87
2023/03/04 10:30:46;;;;;;;34.22;15.50;;;;;;;;;;5013106;28;20894;-91
2023/03/04 10:33:13;;;;;;;34.17;15.15;;;;;;;;;;5013849;28;20043;-89
2023/03/04 10:35:39;;;;;;;29.42;14.65;;;;;;;;;;5020648;28;20052;-91
2023/03/04 10:38:06;;;;;;;25.33;12.98;;;;;;;;;;5011174;28;20037;-91
2023/03/04 10:40:37;;;;;;;33.00;14.93;;;;;;;;;;5021629;28;20033;-90
2023/03/04 10:43:07;;;;;;;32.50;15.40;;;;;;;;;;5020608;28;20030;-92
2023/03/04 10:45:37;;;;;;;28.10;14.05;;;;;;;;;;5019469;28;20041;-91
2023/03/04 10:48:03;;;;;;;27.63;14.15;;;;;;;;;;5015590;28;20062;-91
2023/03/04 10:50:31;;;;;;;26.30;12.70;;;;;;;;;;5011412;28;20053;-90
2023/03/04 10:52:57;;;;;;;31.35;14.18;;;;;;;;;;5014873;28;20053;-88
2023/03/04 10:55:30;;;;;;;29.08;13.18;;;;;;;;;;5015102;28;20347;-88
2023/03/04 10:58:03;;;;;;;27.25;12.73;;;;;;;;;;5014506;28;20030;-86
2023/03/04 11:00:32;;;;;;;26.55;12.45;;;;;;;;;;5013708;28;20786;-87
2023/03/04 11:03:16;;;;;;;32.08;12.65;;;;;;;;;;5008483;28;20045;-88
2023/03/04 11:05:42;;;;;;;27.00;12.27;;;;;;;;;;5010473;28;20068;-90
2023/03/04 11:08:16;;;;;;;27.10;13.07;;;;;;;;;;5017999;28;20038;-91
2023/03/04 11:10:42;;;;;;;25.33;13.38;;;;;;;;;;5014050;28;20029;-88
2023/03/04 11:13:11;;;;;;;28.38;13.35;;;;;;;;;;5017648;28;20057;-89
2023/03/04 11:16:06;;;;;;;28.10;14.25;;;;;;;;;;5020872;28;20021;-89
2023/03/04 11:18:39;;;;;;;21.70;11.38;;;;;;;;;;5021175;28;20042;-90
2023/03/04 11:21:05;;;;;;;23.20;11.70;;;;;;;;;;5017407;28;20031;-92
2023/03/04 11:23:43;;;;;;;24.98;12.73;;;;;;;;;;5026707;28;20087;-91
2023/03/04 11:26:18;;;;;;;22.75;11.82;;;;;;;;;;5024876;28;20026;-86
2023/03/04 11:28:51;;;;;;;21.20;11.15;;;;;;;;;;5016243;28;20029;-87
2023/03/04 11:31:22;;;;;;;19.00;10.77;;;;;;;;;;5014394;28;20034;-88
2023/03/04 11:34:01;;;;;;;24.67;13.43;;;;;;;;;;5019435;28;20043;-81
2023/03/04 11:36:45;;;;;;;23.23;11.45;;;;;;;;;;5017880;28;20064;-85
2023/03/04 11:39:26;;;;;;;25.48;12.25;;;;;;;;;;5015249;28;20029;-82
2023/03/04 11:42:02;;;;;;;24.15;11.75;;;;;;;;;;5016604;28;20076;-84
2023/03/04 11:44:29;;;;;;;27.08;12.65;;;;;;;;;;5016188;28;20081;-84
2023/03/04 11:47:02;;;;;;;18.67;11.40;;;;;;;;;;5011156;28;20079;-84
2023/03/04 11:49:52;;;;;;;26.98;12.02;;;;;;;;;;5016347;28;20065;-84
2023/03/04 11:52:33;;;;;;;24.75;11.25;;;;;;;;;;5015313;28;20034;-83
2023/03/04 11:54:59;;;;;;;22.33;11.75;;;;;;;;;;5001755;28;20043;-85
2023/03/04 11:57:31;;;;;;;27.13;12.00;;;;;;;;;;5012904;28;20041;-85
2023/03/04 12:00:00;;;;;;;24.80;10.73;;;;;;;;;;5016222;28;20045;-84
2023/03/04 12:02:39;;;;;;;22.63;12.07;;;;;;;;;;5013424;28;20038;-84
2023/03/04 12:05:32;;;;;;;23.20;10.95;;;;;;;;;;5013143;28;20057;-82
2023/03/04 12:08:02;;;;;;;23.45;11.32;;;;;;;;;;5016205;28;20038;-83
2023/03/04 12:10:54;;;;;;;24.60;12.10;;;;;;;;;;5010882;28;20436;-83
2023/03/04 12:13:29;;;;;;;24.80;12.85;;;;;;;;;;5009212;28;20043;-84
2023/03/04 12:15:55;;;;;;;27.70;13.52;;;;;;;;;;5008963;28;20067;-81
2023/03/04 12:18:28;;;;;;;49.65;25.92;;;;;;;;;;5010181;28;20098;-79
2023/03/04 12:21:13;;;;;;;28.67;13.02;;;;;;;;;;5008790;28;20030;-82
2023/03/04 12:23:58;;;;;;;80.03;24.58;;;;;;;;;;5011281;28;20034;-83
2023/03/04 12:26:35;;;;;;;22.25;11.73;;;;;;;;;;5012126;28;20042;-85
2023/03/04 12:29:01;;;;;;;20.08;10.55;;;;;;;;;;5012819;28;20029;-84
2023/03/04 12:31:34;;;;;;;19.67;10.55;;;;;;;;;;5008128;28;20447;-84
2023/03/04 12:34:13;;;;;;;18.05;10.20;;;;;;;;;;5009492;28;20031;-84
2023/03/04 12:36:38;;;;;;;;;;;;;;;;;;5008820;28;20103;-81
2023/03/04 12:39:19;;;;;;;20.48;9.10;;;;;;;;;;5008888;28;19947;-83
2023/03/04 12:41:51;;;;;;;18.98;9.82;;;;;;;;;;5009581;28;20006;-83
2023/03/04 12:44:20;;;;;;;19.58;10.10;;;;;;;;;;5009214;28;20010;-82
2023/03/04 12:46:57;;;;;;;20.05;9.77;;;;;;;;;;5012891;28;20008;-82
2023/03/04 12:49:42;;;;;;;17.63;9.93;;;;;;;;;;5005372;28;20061;-82
2023/03/04 12:52:28;;;;;;;19.60;9.75;;;;;;;;;;5013545;28;20108;-82
2023/03/04 12:54:59;;;;;;;15.13;8.57;;;;;;;;;;5011168;28;20090;-82
2023/03/04 12:57:30;;;;;;;18.20;8.77;;;;;;;;;;5006603;28;20073;-82
2023/03/04 13:00:05;;;;;;;18.67;10.02;;;;;;;;;;5007936;28;21220;-82
2023/03/04 13:02:50;;;;;;;24.05;10.48;;;;;;;;;;5007850;28;20038;-82
2023/03/04 13:05:19;;;;;;;16.65;9.48;;;;;;;;;;5009469;28;20463;-82
2023/03/04 13:08:04;;;;;;;20.30;10.43;;;;;;;;;;5013969;28;20025;-82
2023/03/04 13:10:30;;;;;;;24.48;11.30;;;;;;;;;;5015186;28;20030;-82
2023/03/04 13:13:00;;;;;;;22.17;10.68;;;;;;;;;;5008228;28;20109;-79
2023/03/04 13:15:29;;;;;;;21.88;10.05;;;;;;;;;;5006248;28;20034;-81
2023/03/04 13:17:56;;;;;;;19.58;9.43;;;;;;;;;;5010140;28;20070;-81
2023/03/04 13:20:25;;;;;;;17.65;9.52;;;;;;;;;;5008047;28;20296;-81
2023/03/04 13:23:21;;;;;;;24.02;10.52;;;;;;;;;;5011673;28;20080;-81
2023/03/04 13:25:49;;;;;;;18.08;9.80;;;;;;;;;;5003110;28;20652;-82
2023/03/04 13:28:44;;;;;;;21.30;10.40;;;;;;;;;;5008426;28;20060;-82
2023/03/04 13:31:10;;;;;;;20.80;10.48;;;;;;;;;;5007255;28;20273;-82
2023/03/04 13:33:36;;;;;;;24.02;10.85;;;;;;;;;;5009361;28;20033;-82
2023/03/04 13:36:05;;;;;;;18.65;9.77;;;;;;;;;;5013455;28;20062;-85
2023/03/04 13:38:32;;;;;;;22.42;10.20;;;;;;;;;;5006854;28;20049;-81
2023/03/04 13:41:07;;;;;;;16.05;8.25;;;;;;;;;;5016046;28;20057;-81
2023/03/04 13:43:43;;;;;;;22.15;10.13;;;;;;;;;;5013815;28;20034;-81
2023/03/04 13:46:18;;;;;;;21.48;9.88;;;;;;;;;;5012069;28;20033;-82
2023/03/04 13:48:44;;;;;;;23.30;10.30;;;;;;;;;;5012404;28;20057;-81
2023/03/04 13:51:29;;;;;;;19.75;9.20;;;;;;;;;;5007882;28;20030;-81
2023/03/04 13:53:55;;;;;;;18.52;9.57;;;;;;;;;;5007613;28;20037;-82
2023/03/04 13:56:30;;;;;;;19.38;10.07;;;;;;;;;;5005820;28;20034;-82
2023/03/04 13:59:05;;;;;;;20.40;10.63;;;;;;;;;;5015790;28;20084;-83
2023/03/04 14:01:32;;;;;;;20.60;9.52;;;;;;;;;;5008310;28;20030;-83
2023/03/04 14:03:59;;;;;;;21.85;9.68;;;;;;;;;;5006911;28;20034;-82
2023/03/04 14:06:29;;;;;;;20.48;9.73;;;;;;;;;;5010994;28;20220;-81
2023/03/04 14:08:56;;;;;;;15.45;9.38;;;;;;;;;;5007610;28;20064;-81
2023/03/04 14:11:24;;;;;;;19.50;9.27;;;;;;;;;;5005415;28;20052;-81
2023/03/04 14:13:50;;;;;;;21.25;10.77;;;;;;;;;;5014724;28;20041;-82
2023/03/04 14:16:25;;;;;;;21.90;9.95;;;;;;;;;;5011614;28;20044;-82
2023/03/04 14:19:05;;;;;;;21.23;10.75;;;;;;;;;;5007144;28;20026;-82
2023/03/04 14:21:32;;;;;;;23.15;9.85;;;;;;;;;;5009443;28;20033;-82
2023/03/04 14:24:02;;;;;;;21.30;9.65;;;;;;;;;;5006376;28;20848;-82
2023/03/04 14:26:29;;;;;;;22.17;9.77;;;;;;;;;;5001324;28;20018;-81
2023/03/04 14:28:58;;;;;;;18.08;9.18;;;;;;;;;;5008648;28;20410;-82